Big Bear Station Historical Data
Daily Summary for April 16, 2019 Units:  English    Metric   Both
Next Day »
Daily Weekly Monthly Yearly Custom
  High: Low: Average:
Temperature: 49.3 °F 34.2 °F 42 °F
Dew Point: 37.5 °F 30.5 °F 34.1 °F
Humidity: 87% 53% 74%
Wind Speed: 8.3mph 0.0mph 3.6mph
Wind Gust: -999.0mph - -
Wind- - WNW
Pressure: 23.48 in 23.34 in -
Precipitation: 0.00 in    
Historical Graphs
 
 
Tabular Data for April 16, 2019
Time Temperature Dew Point Pressure Wind Wind Speed Wind Gust Humidity Rainfall Rate (Hourly)
08:18 38.7 °F 32.7 °F 23.34 in NW 2.7 mph -999.0 mph 79% 0.00 in
08:37 39.7 °F 33.4 °F 23.34 in WNW 3.7 mph -999.0 mph 78% 0.00 in
08:52 40.8 °F 34.1 °F 23.35 in NW 2.7 mph -999.0 mph 77% 0.00 in
09:07 41.2 °F 34.2 °F 23.35 in NNW 3.7 mph -999.0 mph 76% 0.00 in
09:22 41.7 °F 34.7 °F 23.36 in WSW 4.2 mph -999.0 mph 76% 0.00 in
09:37 41.7 °F 35.0 °F 23.35 in SE 2.2 mph -999.0 mph 77% 0.00 in
09:53 41.9 °F 34.6 °F 23.35 in NNW 4.7 mph -999.0 mph 75% 0.00 in
10:08 43.0 °F 35.6 °F 23.35 in NW 4.7 mph -999.0 mph 75% 0.00 in
10:23 42.3 °F 37.5 °F 23.35 in NW 4.7 mph -999.0 mph 83% 0.00 in
10:38 41.4 °F 36.6 °F 23.36 in WNW 5.3 mph -999.0 mph 83% 0.00 in
10:54 43.7 °F 36.6 °F 23.36 in NE 2.7 mph -999.0 mph 76% 0.00 in
11:09 45.5 °F 37.0 °F 23.37 in West 4.7 mph -999.0 mph 72% 0.00 in
11:25 45.9 °F 35.9 °F 23.37 in South 4.7 mph -999.0 mph 68% 0.00 in
11:40 46.0 °F 35.7 °F 23.37 in WNW 5.8 mph -999.0 mph 67% 0.00 in
11:55 46.6 °F 35.5 °F 23.37 in NW 3.7 mph -999.0 mph 65% 0.00 in
12:10 47.1 °F 35.9 °F 23.37 in North 6.8 mph -999.0 mph 65% 0.00 in
12:25 46.4 °F 35.7 °F 23.37 in NW 3.7 mph -999.0 mph 66% 0.00 in
12:41 47.8 °F 34.6 °F 23.37 in NW 4.7 mph -999.0 mph 60% 0.00 in
12:56 48.2 °F 33.7 °F 23.37 in NNW 3.7 mph -999.0 mph 57% 0.00 in
13:11 48.4 °F 34.7 °F 23.37 in NW 6.8 mph -999.0 mph 59% 0.00 in
13:26 48.4 °F 33.4 °F 23.37 in WNW 6.3 mph -999.0 mph 56% 0.00 in
13:41 48.4 °F 34.3 °F 23.36 in NW 1.7 mph -999.0 mph 58% 0.00 in
13:57 49.1 °F 34.1 °F 23.36 in WNW 3.2 mph -999.0 mph 56% 0.00 in
14:12 49.3 °F 32.9 °F 23.36 in North 5.3 mph -999.0 mph 53% 0.00 in
14:27 48.2 °F 34.1 °F 23.36 in NW 6.8 mph -999.0 mph 58% 0.00 in
14:42 47.1 °F 33.9 °F 23.36 in NW 5.8 mph -999.0 mph 60% 0.00 in
14:58 47.8 °F 34.6 °F 23.36 in North 2.2 mph -999.0 mph 60% 0.00 in
15:13 47.8 °F 34.2 °F 23.35 in SW 3.2 mph -999.0 mph 59% 0.00 in
15:29 46.8 °F 34.5 °F 23.35 in NW 8.3 mph -999.0 mph 62% 0.00 in
15:44 45.5 °F 34.4 °F 23.35 in NW 6.3 mph -999.0 mph 65% 0.00 in
15:59 47.7 °F 36.1 °F 23.35 in NW 5.3 mph -999.0 mph 64% 0.00 in
16:14 45.9 °F 35.9 °F 23.35 in NNW 2.7 mph -999.0 mph 68% 0.00 in
16:30 44.1 °F 34.2 °F 23.35 in SE 2.7 mph -999.0 mph 68% 0.00 in
16:45 44.1 °F 36.0 °F 23.35 in North 4.7 mph -999.0 mph 73% 0.00 in
17:00 42.6 °F 34.9 °F 23.35 in WNW 3.2 mph -999.0 mph 74% 0.00 in
17:15 41.9 °F 34.9 °F 23.36 in WNW 4.7 mph -999.0 mph 76% 0.00 in
17:31 41.7 °F 34.7 °F 23.37 in NW 3.2 mph -999.0 mph 76% 0.00 in
17:46 39.7 °F 34.3 °F 23.36 in ESE 2.2 mph -999.0 mph 81% 0.00 in
18:01 40.1 °F 34.1 °F 23.37 in Calm   -999.0 mph 79% 0.00 in
18:16 40.8 °F 33.2 °F 23.38 in Calm   -999.0 mph 74% 0.00 in
18:31 40.3 °F 32.7 °F 23.38 in NNW 3.7 mph -999.0 mph 74% 0.00 in
18:47 39.6 °F 33.0 °F 23.39 in NW 2.2 mph -999.0 mph 77% 0.00 in
19:02 38.8 °F 32.5 °F 23.39 in South 5.8 mph -999.0 mph 78% 0.00 in
19:17 38.7 °F 33.1 °F 23.40 in NNW 1.7 mph -999.0 mph 80% 0.00 in
19:32 38.3 °F 33.6 °F 23.40 in North 4.7 mph -999.0 mph 83% 0.00 in
19:48 38.1 °F 33.4 °F 23.40 in NW 5.3 mph -999.0 mph 83% 0.00 in
20:04 38.3 °F 33.6 °F 23.40 in NW 2.7 mph -999.0 mph 83% 0.00 in
20:19 37.8 °F 33.1 °F 23.41 in WNW 3.7 mph -999.0 mph 83% 0.00 in
20:34 37.6 °F 33.8 °F 23.41 in NW 7.3 mph -999.0 mph 86% 0.00 in
20:49 37.6 °F 33.8 °F 23.42 in North 4.7 mph -999.0 mph 86% 0.00 in
21:05 37.8 °F 34.3 °F 23.43 in NNE 5.8 mph -999.0 mph 87% 0.00 in
21:20 37.6 °F 34.1 °F 23.43 in NNW 4.7 mph -999.0 mph 87% 0.00 in
21:35 37.8 °F 34.0 °F 23.44 in ENE 2.7 mph -999.0 mph 86% 0.00 in
21:51 37.6 °F 33.8 °F 23.45 in NNW 4.7 mph -999.0 mph 86% 0.00 in
22:06 37.6 °F 33.8 °F 23.45 in Calm   -999.0 mph 86% 0.00 in
22:21 35.8 °F 32.0 °F 23.46 in South 1.1 mph -999.0 mph 86% 0.00 in
22:36 35.2 °F 31.7 °F 23.46 in Calm   -999.0 mph 87% 0.00 in
22:51 34.9 °F 31.4 °F 23.46 in South 1.7 mph -999.0 mph 87% 0.00 in
23:07 34.2 °F 30.7 °F 23.47 in Calm   -999.0 mph 87% 0.00 in
23:22 34.2 °F 30.7 °F 23.47 in Calm   -999.0 mph 87% 0.00 in
23:37 34.3 °F 30.8 °F 23.47 in Calm   -999.0 mph 87% 0.00 in
23:52 34.2 °F 30.5 °F 23.48 in Calm   -999.0 mph 86% 0.00 in
Big Bear CA Weather